Luxora, AR (72358)

8:41 PM CDT on August 01, 2014 (GMT -0500)
Blytheville Municipal (KHKA) Elev 256 ft | 35.94 °N, 89.83 °W | Change Station

Current weather conditions updated 48 minutes ago

Clear
Clear
77 °F
Feels Like 77 °F
N
4
Wind Variable Wind from NNE

Tomorrow is forecast to be Warmer than today.

Today
High -- | Low -- °F
--% Chance of Precip.
Yesterday
High -- | Low -- °F
Precip. -- in
6:07 AM 8:04 PM
Waxing Crescent, 31% visible
Pressure 30.01 in
Visibility 10.0 miles
Clouds Clear
Dew Point 68 °F
Humidity 74%
Rainfall 0.00 in
Snow Depth Not available.
UV 0 out of 12
Pollen 6.60 out of 12
Air Quality Not available.
Flu Activity Not available.
METAR KHKA 020053Z AUTO 03003KT 10SM CLR 25/20 A3002 RMK AO2 SLP162 T02500200 $

More Conditions Fewer Conditions

Pressure 30.01 in
Visibility 10.0 miles
Clouds Clear
Dew Point 68 °F
Humidity 74%
Rainfall 0.00 in
Snow Depth Not available.
UV 0 out of 12
Pollen 6.60 out of 12
Air Quality Not available.
Flu Activity Not available.
METAR KHKA 020053Z AUTO 03003KT 10SM CLR 25/20 A3002 RMK AO2 SLP162 T02500200 $

More Conditions Fewer Conditions

10-Day Weather Forecast

Almanac

Astronomy

Aug. 01, 2014 Rise Set
Actual Time 6:07 AM CDT 8:04 PM CDT
Civil Twilight 5:39 AM CDT 8:32 PM CDT
Nautical Twilight 5:05 AM CDT 9:06 PM CDT
Astronomical Twilight 4:28 AM CDT 9:42 PM CDT
Moon 11:19 AM CDT (8/1) 11:01 PM CDT (8/1)
Length of Visible Light 14h 52m
Length of Day
13h 56m
Tomorrow will be 1m 42s shorter.
Waxing Crescent, 31% of the Moon is Illuminated
Today
Waxing Crescent
Aug 3
First Quarter
Aug 10
Full
Aug 17
Last Quarter
Aug 25
New

Today's Extremes

State Highs State Lows

Community

WunderPhotos

Upload Photos

1,739,784 photos uploaded!

Nearby

Snow Depth

Station Depth Elevation
No new snow has been reported.

Earthquake Activity

City Distance Mag. Time & Date
No recent earthquake activity has been reported nearby.
Minimum magnitude displayed is 2.5.

Coastal Water Temperatures

Place Temperature
No Stations Reporting

Nearby Weather Stations

Station Location Temp. Heat Index Dew Point Humidity Wind Precip. Elev Updated Type
Gilt Edge TN, Gilt Edge, TN 73.5 °F 73 °F 69 °F 85% North  at  0.0 mph 0.00 in / hr 276 ft 8:28 PM CDT Normal
Tipton County Public Works, Brighton, TN 75.0 °F 76 °F 68 °F 78% NNW  at  1.0 mph 0.00 in / hr 325 ft 8:41 PM CDT Rapid Fire
Pecan Hill Farm, Henning, TN 78.4 °F 80 °F 67 °F 68% NNE  at  0.0 mph 0.00 in / hr 300 ft 8:41 PM CDT Rapid Fire
Munford, TN 73.0 °F 73 °F 68 °F 83% NNE  at  0.0 mph - / hr 394 ft 8:32 PM CDT Normal

Show More Stations Show Fewer Stations